createdAt,value
2019-03-21T03:00:26.723Z,7.20
2019-03-21T03:02:57.415Z,7.00
2019-03-21T03:05:30.305Z,7.10
2019-03-21T03:07:59.510Z,7.10
2019-03-21T03:10:40.410Z,7.10
2019-03-21T03:13:10.108Z,7.10
2019-03-21T03:15:40.464Z,7.00
2019-03-21T03:18:17.137Z,6.90
2019-03-21T03:20:46.252Z,6.80
2019-03-21T03:23:15.382Z,6.70
2019-03-21T03:25:44.521Z,6.80
2019-03-21T03:28:32.025Z,6.80
2019-03-21T03:31:03.464Z,6.70
2019-03-21T03:33:32.742Z,6.70
2019-03-21T03:36:01.880Z,6.60
2019-03-21T03:38:31.171Z,6.60
2019-03-21T03:41:08.277Z,6.70
2019-03-21T03:43:37.397Z,6.70
2019-03-21T03:46:06.538Z,6.50
2019-03-21T03:48:35.660Z,6.50
2019-03-21T03:51:04.779Z,6.40
2019-03-21T03:53:34.971Z,6.40
2019-03-21T03:56:05.167Z,6.40
2019-03-21T03:58:37.591Z,6.40
2019-03-21T04:01:06.711Z,6.30
2019-03-21T04:03:35.990Z,6.20
2019-03-21T04:06:05.693Z,6.10
2019-03-21T04:08:34.805Z,6.00
2019-03-21T04:11:04.628Z,6.00
2019-03-21T04:13:33.765Z,6.00
2019-03-21T04:16:04.541Z,6.00
2019-03-21T04:18:34.227Z,6.00
2019-03-21T04:21:14.155Z,6.00
2019-03-21T04:23:43.359Z,6.00
2019-03-21T04:26:27.842Z,6.10
2019-03-21T04:28:57.927Z,6.20
2019-03-21T04:31:27.040Z,6.20
2019-03-21T04:33:59.404Z,6.20
2019-03-21T04:36:28.521Z,6.10
2019-03-21T04:38:57.656Z,6.10
2019-03-21T04:41:26.795Z,6.20
2019-03-21T04:43:55.916Z,6.20
2019-03-21T04:46:25.027Z,6.10
2019-03-21T04:48:54.159Z,6.10
2019-03-21T04:51:23.294Z,6.00
2019-03-21T04:53:53.547Z,5.90
2019-03-21T04:56:23.099Z,5.80
2019-03-21T04:58:53.299Z,5.70
2019-03-21T05:01:22.424Z,5.70
2019-03-21T05:03:51.554Z,5.60
2019-03-21T05:06:20.667Z,5.50
2019-03-21T05:08:49.818Z,5.50
2019-03-21T05:11:18.935Z,5.50
2019-03-21T05:13:48.052Z,5.50
2019-03-21T05:16:17.183Z,5.40
2019-03-21T05:18:55.551Z,5.40
2019-03-21T05:21:24.970Z,5.40
2019-03-21T05:23:54.131Z,5.50
2019-03-21T05:26:23.263Z,5.50
2019-03-21T05:28:52.455Z,5.40
2019-03-21T05:31:31.042Z,5.50
2019-03-21T05:34:00.223Z,5.50
2019-03-21T05:36:29.351Z,5.50
2019-03-21T05:38:58.487Z,5.40
2019-03-21T05:41:27.606Z,5.40
2019-03-21T05:44:03.732Z,5.30
2019-03-21T05:46:33.194Z,5.30
2019-03-21T05:49:03.773Z,5.30
2019-03-21T05:51:32.930Z,5.40
2019-03-21T05:54:02.885Z,5.40
2019-03-21T05:56:32.343Z,5.40
2019-03-21T05:59:02.824Z,5.50
2019-03-21T06:01:31.935Z,5.50
2019-03-21T06:04:03.014Z,5.50
2019-03-21T06:06:53.577Z,5.50
2019-03-21T06:09:23.179Z,5.60
2019-03-21T06:11:55.579Z,5.70
2019-03-21T06:14:24.762Z,5.60
2019-03-21T06:16:54.171Z,5.80
2019-03-21T06:19:26.550Z,6.00
2019-03-21T06:21:58.947Z,6.20
2019-03-21T06:24:38.731Z,6.20
2019-03-21T06:27:14.807Z,6.20
2019-03-21T06:29:41.967Z,6.20
2019-03-21T06:32:13.007Z,6.30
2019-03-21T06:34:41.923Z,6.30
2019-03-21T06:37:11.050Z,6.30
2019-03-21T06:39:40.174Z,6.40
2019-03-21T06:42:09.328Z,6.50
2019-03-21T06:44:38.530Z,6.50
2019-03-21T06:47:07.648Z,6.50
2019-03-21T06:49:36.788Z,6.50
2019-03-21T06:52:05.931Z,6.50
2019-03-21T06:54:35.045Z,6.70
2019-03-21T06:57:04.174Z,6.80
2019-03-21T06:59:33.301Z,6.90
2019-03-21T07:02:02.438Z,6.90
2019-03-21T07:04:31.822Z,6.90
2019-03-21T07:07:08.206Z,6.90
2019-03-21T07:09:32.246Z,7.00
2019-03-21T07:12:01.708Z,7.10
2019-03-21T07:14:30.836Z,7.20
2019-03-21T07:17:00.794Z,7.30
2019-03-21T07:19:30.733Z,7.30
2019-03-21T07:21:59.875Z,7.40
2019-03-21T07:24:29.432Z,7.50
2019-03-21T07:26:58.571Z,7.60
2019-03-21T07:29:27.686Z,7.70
2019-03-21T07:31:57.550Z,7.80
2019-03-21T07:34:26.690Z,7.90
2019-03-21T07:36:56.486Z,7.90
2019-03-21T07:39:25.616Z,7.90
2019-03-21T07:41:54.756Z,8.10
2019-03-21T07:44:23.886Z,8.20
2019-03-21T07:46:53.018Z,8.20
2019-03-21T07:49:22.135Z,8.40
2019-03-21T07:51:51.835Z,8.50
2019-03-21T07:54:21.518Z,8.60
2019-03-21T07:56:50.654Z,8.60
2019-03-21T07:59:20.480Z,8.70
2019-03-21T08:01:49.611Z,8.90
2019-03-21T08:04:18.722Z,9.00
2019-03-21T08:06:48.026Z,9.00
2019-03-21T08:09:17.143Z,9.10
2019-03-21T08:11:46.269Z,9.10
2019-03-21T08:14:15.743Z,9.20
2019-03-21T08:16:44.882Z,9.40
2019-03-21T08:19:14.005Z,9.40
2019-03-21T08:21:43.143Z,9.50
2019-03-21T08:24:12.268Z,9.60
2019-03-21T08:26:41.387Z,9.70
2019-03-21T08:29:10.528Z,9.70
2019-03-21T08:31:39.653Z,9.90
2019-03-21T08:34:08.853Z,9.90
2019-03-21T08:36:37.990Z,10.00
2019-03-21T08:39:07.492Z,10.00
2019-03-21T08:41:36.610Z,10.20
2019-03-21T08:44:05.751Z,10.20
2019-03-21T08:46:34.877Z,10.30
2019-03-21T08:49:04.558Z,10.30
2019-03-21T08:51:33.934Z,10.40
2019-03-21T08:54:03.055Z,10.50
2019-03-21T08:56:32.201Z,10.60
2019-03-21T08:59:01.818Z,10.60
2019-03-21T09:01:30.984Z,10.70
2019-03-21T09:04:00.442Z,10.80
2019-03-21T09:06:29.674Z,10.80
2019-03-21T09:08:58.790Z,10.90
2019-03-21T09:11:27.927Z,10.90
2019-03-21T09:13:58.127Z,11.10
2019-03-21T09:16:27.258Z,11.10
2019-03-21T09:18:56.399Z,11.20
2019-03-21T09:21:25.528Z,11.20
2019-03-21T09:23:54.658Z,11.30
2019-03-21T09:26:24.403Z,11.40
2019-03-21T09:28:53.547Z,11.50
2019-03-21T09:31:22.673Z,11.60
2019-03-21T09:33:51.804Z,11.60
2019-03-21T09:36:21.516Z,11.70
2019-03-21T09:38:50.654Z,11.80
2019-03-21T09:41:20.210Z,11.80
2019-03-21T09:43:49.367Z,11.90
2019-03-21T09:46:18.502Z,12.00
2019-03-21T09:48:47.626Z,12.10
2019-03-21T09:51:16.775Z,12.20
2019-03-21T09:53:45.899Z,12.30
2019-03-21T09:56:16.020Z,12.40
2019-03-21T09:58:45.142Z,12.40
2019-03-21T10:01:14.289Z,12.50
2019-03-21T10:03:43.978Z,12.60
2019-03-21T10:06:13.599Z,12.60
2019-03-21T10:08:42.729Z,12.70
2019-03-21T10:11:11.876Z,12.70
2019-03-21T10:13:41.004Z,12.80
2019-03-21T10:16:10.131Z,12.80
2019-03-21T10:18:39.275Z,12.90
2019-03-21T10:21:08.419Z,13.00
2019-03-21T10:23:37.558Z,13.10
2019-03-21T10:26:06.700Z,13.20
2019-03-21T10:28:35.859Z,13.20
2019-03-21T10:31:05.062Z,13.30
2019-03-21T10:33:34.206Z,13.30
2019-03-21T10:36:04.974Z,13.30
2019-03-21T10:38:34.124Z,13.40
2019-03-21T10:41:04.909Z,13.50
2019-03-21T10:43:34.042Z,13.50
2019-03-21T10:46:03.770Z,13.60
2019-03-21T10:48:32.912Z,13.60
2019-03-21T10:51:03.832Z,13.60
2019-03-21T10:53:32.955Z,13.60
2019-03-21T10:56:02.531Z,13.70
2019-03-21T10:58:31.653Z,13.80
2019-03-21T11:01:01.330Z,13.90
2019-03-21T11:03:30.455Z,13.90
2019-03-21T11:05:59.595Z,14.00
2019-03-21T11:08:28.736Z,14.00
2019-03-21T11:10:57.871Z,14.10
2019-03-21T11:13:26.990Z,14.10
2019-03-21T11:15:56.579Z,14.10
2019-03-21T11:18:35.680Z,14.30
2019-03-21T11:20:56.555Z,14.40
2019-03-21T11:23:25.675Z,14.50
2019-03-21T11:25:55.154Z,14.70
2019-03-21T11:28:24.286Z,14.80
2019-03-21T11:30:54.374Z,14.90
2019-03-21T11:33:23.494Z,15.10
2019-03-21T11:35:52.622Z,15.30
2019-03-21T11:38:21.772Z,15.40
2019-03-21T11:40:51.149Z,15.50
2019-03-21T11:43:20.263Z,15.70
2019-03-21T11:45:49.965Z,15.80
2019-03-21T11:48:19.100Z,15.90
2019-03-21T11:50:48.214Z,15.90
2019-03-21T11:53:17.893Z,16.00
2019-03-21T11:55:47.031Z,16.10
2019-03-21T11:58:17.704Z,16.10
2019-03-21T12:00:47.403Z,16.20
2019-03-21T12:03:16.543Z,16.30
2019-03-21T12:05:46.242Z,16.30
2019-03-21T12:08:15.368Z,16.40
2019-03-21T12:10:44.507Z,16.60
2019-03-21T12:13:13.727Z,16.60
2019-03-21T12:15:42.864Z,16.70
2019-03-21T12:18:12.008Z,16.90
2019-03-21T12:20:41.128Z,17.10
2019-03-21T12:23:10.246Z,17.10
2019-03-21T12:25:39.389Z,17.20
2019-03-21T12:28:08.531Z,17.30
2019-03-21T12:30:39.065Z,17.50
2019-03-21T12:33:08.211Z,17.60
2019-03-21T12:35:37.335Z,17.80
2019-03-21T12:38:06.462Z,17.90
2019-03-21T12:40:48.273Z,18.10
2019-03-21T12:43:17.416Z,18.30
2019-03-21T12:45:46.535Z,18.50
2019-03-21T12:48:16.583Z,18.60
2019-03-21T12:50:45.704Z,18.80
2019-03-21T12:53:15.403Z,18.90
2019-03-21T12:55:44.526Z,19.00
2019-03-21T12:58:14.318Z,19.00
2019-03-21T13:00:43.459Z,19.10
2019-03-21T13:03:12.596Z,19.20
2019-03-21T13:05:41.721Z,19.30
2019-03-21T13:08:10.844Z,19.40
2019-03-21T13:10:39.971Z,19.50
2019-03-21T13:13:09.087Z,19.60
2019-03-21T13:15:38.267Z,19.60
2019-03-21T13:18:07.555Z,19.60
2019-03-21T13:20:36.795Z,19.70
2019-03-21T13:23:05.971Z,19.70
2019-03-21T13:25:35.555Z,19.90
2019-03-21T13:28:06.062Z,19.90
2019-03-21T13:30:35.188Z,20.00
2019-03-21T13:33:04.931Z,20.10
2019-03-21T13:35:34.072Z,20.10
2019-03-21T13:38:03.243Z,20.30
2019-03-21T13:40:32.370Z,20.40
2019-03-21T13:43:01.486Z,20.60
2019-03-21T13:45:30.627Z,20.80
2019-03-21T13:47:59.766Z,20.80
2019-03-21T13:50:29.859Z,20.80
2019-03-21T13:53:04.915Z,20.80
2019-03-21T13:55:30.388Z,20.90
2019-03-21T13:57:59.515Z,21.00
2019-03-21T14:00:28.650Z,21.10
2019-03-21T14:02:57.766Z,21.30
2019-03-21T14:05:26.914Z,21.30
2019-03-21T14:07:56.048Z,21.30
2019-03-21T14:10:25.746Z,21.40
2019-03-21T14:12:54.862Z,21.60
2019-03-21T14:15:23.985Z,21.70
2019-03-21T14:17:53.124Z,21.80
2019-03-21T14:20:22.263Z,21.80
2019-03-21T14:22:51.374Z,21.90
2019-03-21T14:25:20.520Z,21.90
2019-03-21T14:27:49.634Z,22.00
2019-03-21T14:30:18.756Z,22.00
2019-03-21T14:32:47.888Z,22.10
2019-03-21T14:35:17.019Z,22.10
2019-03-21T14:37:46.145Z,22.10
2019-03-21T14:40:16.002Z,22.20
2019-03-21T14:42:45.875Z,22.30
2019-03-21T14:45:16.320Z,22.50
2019-03-21T14:47:45.459Z,22.50
2019-03-21T14:50:15.827Z,22.60
2019-03-21T14:52:44.967Z,22.60
2019-03-21T14:55:14.454Z,22.70
2019-03-21T14:57:43.622Z,22.70
2019-03-21T15:00:17.183Z,22.70
2019-03-21T15:02:46.319Z,22.80
2019-03-21T15:05:15.594Z,22.60
2019-03-21T15:07:44.733Z,22.70
2019-03-21T15:10:15.891Z,22.70
2019-03-21T15:12:45.025Z,22.70
2019-03-21T15:15:15.006Z,22.80
2019-03-21T15:17:44.450Z,23.10
2019-03-21T15:20:17.126Z,23.30
2019-03-21T15:22:46.242Z,23.50
2019-03-21T15:25:15.366Z,23.70
2019-03-21T15:27:44.499Z,23.80
2019-03-21T15:30:18.848Z,23.90
2019-03-21T15:32:48.164Z,24.10
2019-03-21T15:35:17.903Z,24.40
2019-03-21T15:37:47.027Z,24.60
2019-03-21T15:40:16.435Z,24.80
2019-03-21T15:42:45.580Z,25.00
2019-03-21T15:45:23.296Z,25.10
2019-03-21T15:47:49.043Z,25.20
2019-03-21T15:50:38.233Z,25.20
2019-03-21T15:53:07.808Z,25.20
2019-03-21T15:55:36.948Z,25.10
2019-03-21T15:58:06.059Z,25.00
2019-03-21T16:00:39.117Z,24.80
2019-03-21T16:03:09.176Z,24.60
2019-03-21T16:05:38.839Z,24.50
2019-03-21T16:08:09.177Z,24.30
2019-03-21T16:10:39.285Z,24.20
2019-03-21T16:13:08.398Z,24.10
2019-03-21T16:15:38.212Z,23.90
2019-03-21T16:18:07.343Z,23.80
2019-03-21T16:20:36.491Z,23.70
2019-03-21T16:23:06.688Z,23.60
2019-03-21T16:25:35.815Z,23.40
2019-03-21T16:28:04.958Z,23.30
2019-03-21T16:30:34.099Z,23.10
2019-03-21T16:33:03.781Z,23.10
2019-03-21T16:35:32.897Z,23.00
2019-03-21T16:38:03.043Z,22.90
2019-03-21T16:40:32.253Z,22.80
2019-03-21T16:43:05.295Z,22.80
2019-03-21T16:45:33.862Z,22.70
2019-03-21T16:48:03.173Z,22.50
2019-03-21T16:50:32.286Z,22.40
2019-03-21T16:53:02.686Z,22.20
2019-03-21T16:55:31.814Z,22.00
2019-03-21T16:58:01.288Z,21.80
2019-03-21T17:00:30.499Z,21.70
2019-03-21T17:02:59.623Z,21.50
2019-03-21T17:05:28.753Z,21.30
2019-03-21T17:08:10.084Z,21.10
2019-03-21T17:10:30.605Z,20.70
2019-03-21T17:13:04.451Z,20.60
2019-03-21T17:15:30.934Z,20.50
2019-03-21T17:18:00.066Z,20.30
2019-03-21T17:20:31.145Z,20.20
2019-03-21T17:23:00.339Z,20.10
2019-03-21T17:25:32.722Z,19.90
2019-03-21T17:28:03.860Z,19.70
2019-03-21T17:30:32.984Z,19.50
2019-03-21T17:33:02.571Z,19.30
2019-03-21T17:35:31.695Z,19.10
2019-03-21T17:38:03.019Z,18.90
2019-03-21T17:40:32.145Z,18.40
2019-03-21T17:43:01.258Z,18.30
2019-03-21T17:45:30.400Z,18.10
2019-03-21T17:48:00.483Z,17.90
2019-03-21T17:50:30.186Z,17.70
2019-03-21T17:52:59.312Z,17.50
2019-03-21T17:55:28.433Z,17.30
2019-03-21T17:57:57.587Z,17.20
2019-03-21T18:00:28.338Z,17.00
2019-03-21T18:02:57.482Z,16.90
2019-03-21T18:05:26.598Z,16.70
2019-03-21T18:07:55.731Z,16.60
2019-03-21T18:10:34.606Z,16.40
2019-03-21T18:13:03.919Z,16.30
2019-03-21T18:15:33.066Z,16.10
2019-03-21T18:18:02.515Z,15.90
2019-03-21T18:20:31.644Z,15.70
2019-03-21T18:23:00.775Z,15.60
2019-03-21T18:25:30.899Z,15.50
2019-03-21T18:28:00.020Z,15.40
2019-03-21T18:30:29.144Z,15.40
2019-03-21T18:32:58.296Z,15.30
2019-03-21T18:35:27.589Z,15.20
2019-03-21T18:37:56.730Z,15.10
2019-03-21T18:40:25.840Z,15.10
2019-03-21T18:42:54.967Z,14.90
2019-03-21T18:45:24.114Z,14.70
2019-03-21T18:47:53.255Z,14.60
2019-03-21T18:50:22.384Z,14.50
2019-03-21T18:52:51.511Z,14.30
2019-03-21T18:55:21.623Z,14.30
2019-03-21T18:57:51.356Z,14.10
2019-03-21T19:00:20.942Z,14.00
2019-03-21T19:02:50.099Z,14.00
2019-03-21T19:05:19.237Z,14.00
2019-03-21T19:07:48.362Z,14.00
2019-03-21T19:10:18.150Z,13.90
2019-03-21T19:12:47.316Z,13.80
2019-03-21T19:15:17.063Z,13.60
2019-03-21T19:17:46.239Z,13.50
2019-03-21T19:20:18.508Z,13.40
2019-03-21T19:22:48.185Z,13.30
2019-03-21T19:25:19.614Z,13.20
2019-03-21T19:27:48.213Z,13.10
2019-03-21T19:30:21.024Z,13.10
2019-03-21T19:32:50.167Z,12.90
2019-03-21T19:35:19.606Z,13.00
2019-03-21T19:37:49.220Z,13.00
2019-03-21T19:40:19.777Z,13.00
2019-03-21T19:42:49.251Z,12.90
2019-03-21T19:45:18.817Z,12.80
2019-03-21T19:47:47.952Z,12.60
2019-03-21T19:50:18.027Z,12.60
2019-03-21T19:52:47.170Z,12.60
2019-03-21T19:55:16.580Z,12.50
2019-03-21T19:57:45.699Z,12.60
2019-03-21T20:00:20.601Z,12.50
2019-03-21T20:02:49.916Z,12.50
2019-03-21T20:05:19.033Z,12.40
2019-03-21T20:07:48.167Z,12.30
2019-03-21T20:10:19.809Z,12.20
2019-03-21T20:12:48.927Z,12.20
2019-03-21T20:15:18.398Z,12.10
2019-03-21T20:17:47.513Z,12.00
2019-03-21T20:20:17.604Z,11.90
2019-03-21T20:22:47.685Z,11.80
2019-03-21T20:25:16.826Z,11.80
2019-03-21T20:27:45.939Z,11.70
2019-03-21T20:30:22.347Z,11.60
2019-03-21T20:32:51.487Z,11.60
2019-03-21T20:35:20.627Z,11.50
2019-03-21T20:37:49.746Z,11.50
2019-03-21T20:40:20.626Z,11.50
2019-03-21T20:42:49.765Z,11.50
2019-03-21T20:45:19.532Z,11.50
2019-03-21T20:47:48.663Z,11.50
2019-03-21T20:50:17.802Z,11.40
2019-03-21T20:52:46.969Z,11.20
2019-03-21T20:55:17.167Z,11.10
2019-03-21T20:57:47.259Z,11.10
2019-03-21T21:00:21.148Z,11.10
2019-03-21T21:02:50.266Z,11.00
2019-03-21T21:05:19.392Z,11.10
2019-03-21T21:07:48.526Z,11.00
2019-03-21T21:10:17.648Z,11.00
2019-03-21T21:12:46.786Z,11.10
2019-03-21T21:15:17.534Z,11.10
2019-03-21T21:17:46.671Z,11.00
2019-03-21T21:20:16.732Z,10.90
2019-03-21T21:22:46.840Z,11.00
2019-03-21T21:25:15.963Z,10.90
2019-03-21T21:27:49.778Z,10.80
2019-03-21T21:30:20.666Z,10.80
2019-03-21T21:32:49.771Z,10.80
2019-03-21T21:35:18.895Z,10.60
2019-03-21T21:37:48.355Z,10.50
2019-03-21T21:40:17.701Z,10.50
2019-03-21T21:42:46.957Z,10.50
2019-03-21T21:45:16.844Z,10.40
2019-03-21T21:47:46.712Z,10.40
2019-03-21T21:50:16.789Z,10.30
2019-03-21T21:52:45.928Z,10.20
2019-03-21T21:55:15.705Z,10.30
2019-03-21T21:57:44.831Z,10.30
2019-03-21T22:00:19.251Z,10.20
2019-03-21T22:02:48.375Z,10.20
2019-03-21T22:05:17.660Z,10.10
2019-03-21T22:07:46.803Z,10.10
2019-03-21T22:10:15.922Z,10.00
2019-03-21T22:12:45.884Z,9.90
2019-03-21T22:15:15.853Z,9.80
2019-03-21T22:17:44.953Z,9.80
2019-03-21T22:20:15.901Z,9.80
2019-03-21T22:22:45.012Z,9.80
2019-03-21T22:25:14.218Z,9.80
2019-03-21T22:27:43.343Z,9.80
2019-03-21T22:30:17.269Z,9.70
2019-03-21T22:32:46.404Z,9.60
2019-03-21T22:35:15.523Z,9.60
2019-03-21T22:37:45.000Z,9.60
2019-03-21T22:40:16.415Z,9.60
2019-03-21T22:42:45.543Z,9.60
2019-03-21T22:45:17.932Z,9.60
2019-03-21T22:47:50.014Z,9.70
2019-03-21T22:50:17.931Z,9.70
2019-03-21T22:52:47.106Z,9.70
2019-03-21T22:55:16.271Z,9.60
2019-03-21T22:57:45.388Z,9.60
2019-03-21T23:00:23.154Z,9.60
2019-03-21T23:02:54.476Z,9.50
2019-03-21T23:05:23.582Z,9.40
2019-03-21T23:07:52.713Z,9.20
2019-03-21T23:10:21.818Z,9.20
2019-03-21T23:12:50.931Z,9.10
